sensor_id;sensor_type;location;lat;lon;timestamp;P1;durP1;ratioP1;P2;durP2;ratioP2
15482;SDS011;7843;50.330;7.312;2022-08-21T00:02:19;7.60;;;3.47;;
15482;SDS011;7843;50.330;7.312;2022-08-21T00:04:48;7.55;;;3.40;;
15482;SDS011;7843;50.330;7.312;2022-08-21T00:07:15;6.10;;;3.55;;
15482;SDS011;7843;50.330;7.312;2022-08-21T00:09:41;7.72;;;3.42;;
15482;SDS011;7843;50.330;7.312;2022-08-21T00:12:08;7.77;;;3.50;;
15482;SDS011;7843;50.330;7.312;2022-08-21T00:14:35;8.48;;;3.15;;
15482;SDS011;7843;50.330;7.312;2022-08-21T00:17:03;6.73;;;3.40;;
15482;SDS011;7843;50.330;7.312;2022-08-21T00:19:31;9.02;;;3.38;;
15482;SDS011;7843;50.330;7.312;2022-08-21T00:21:59;9.13;;;3.72;;
15482;SDS011;7843;50.330;7.312;2022-08-21T00:24:26;8.57;;;3.60;;
15482;SDS011;7843;50.330;7.312;2022-08-21T00:26:53;7.57;;;3.28;;
15482;SDS011;7843;50.330;7.312;2022-08-21T00:29:20;7.00;;;3.05;;
15482;SDS011;7843;50.330;7.312;2022-08-21T00:31:47;8.00;;;3.33;;
15482;SDS011;7843;50.330;7.312;2022-08-21T00:34:14;7.60;;;3.13;;
15482;SDS011;7843;50.330;7.312;2022-08-21T00:36:40;7.68;;;3.00;;
15482;SDS011;7843;50.330;7.312;2022-08-21T00:39:07;7.40;;;3.60;;
15482;SDS011;7843;50.330;7.312;2022-08-21T00:41:36;6.15;;;2.80;;
15482;SDS011;7843;50.330;7.312;2022-08-21T00:44:09;7.05;;;3.25;;
15482;SDS011;7843;50.330;7.312;2022-08-21T00:46:37;8.17;;;3.37;;
15482;SDS011;7843;50.330;7.312;2022-08-21T00:49:05;7.07;;;3.33;;
15482;SDS011;7843;50.330;7.312;2022-08-21T00:51:35;6.30;;;3.10;;
15482;SDS011;7843;50.330;7.312;2022-08-21T00:54:06;8.65;;;3.40;;
15482;SDS011;7843;50.330;7.312;2022-08-21T00:56:33;6.60;;;2.95;;
15482;SDS011;7843;50.330;7.312;2022-08-21T00:59:01;8.60;;;3.77;;
15482;SDS011;7843;50.330;7.312;2022-08-21T01:01:28;7.35;;;2.70;;
15482;SDS011;7843;50.330;7.312;2022-08-21T01:03:55;6.30;;;2.97;;
15482;SDS011;7843;50.330;7.312;2022-08-21T01:06:21;6.88;;;3.20;;
15482;SDS011;7843;50.330;7.312;2022-08-21T01:08:48;6.93;;;3.17;;
15482;SDS011;7843;50.330;7.312;2022-08-21T01:11:15;7.40;;;3.25;;
15482;SDS011;7843;50.330;7.312;2022-08-21T01:13:42;11.88;;;3.53;;
15482;SDS011;7843;50.330;7.312;2022-08-21T01:16:13;5.43;;;2.67;;
15482;SDS011;7843;50.330;7.312;2022-08-21T01:18:42;5.93;;;3.00;;
15482;SDS011;7843;50.330;7.312;2022-08-21T01:21:14;5.10;;;3.03;;
15482;SDS011;7843;50.330;7.312;2022-08-21T01:23:44;5.82;;;3.00;;
15482;SDS011;7843;50.330;7.312;2022-08-21T01:26:13;6.60;;;3.13;;
15482;SDS011;7843;50.330;7.312;2022-08-21T01:28:47;7.68;;;3.30;;
15482;SDS011;7843;50.330;7.312;2022-08-21T01:31:20;7.90;;;3.67;;
15482;SDS011;7843;50.330;7.312;2022-08-21T01:33:49;7.80;;;3.50;;
15482;SDS011;7843;50.330;7.312;2022-08-21T01:36:16;5.90;;;3.00;;
15482;SDS011;7843;50.330;7.312;2022-08-21T01:38:43;6.30;;;3.40;;
15482;SDS011;7843;50.330;7.312;2022-08-21T01:41:10;6.53;;;3.25;;
15482;SDS011;7843;50.330;7.312;2022-08-21T01:43:36;6.93;;;3.22;;
15482;SDS011;7843;50.330;7.312;2022-08-21T01:46:03;6.18;;;3.15;;
15482;SDS011;7843;50.330;7.312;2022-08-21T01:48:30;5.93;;;3.03;;
15482;SDS011;7843;50.330;7.312;2022-08-21T01:50:57;6.28;;;2.92;;
15482;SDS011;7843;50.330;7.312;2022-08-21T01:53:24;6.22;;;3.00;;
15482;SDS011;7843;50.330;7.312;2022-08-21T01:55:52;7.53;;;3.25;;
15482;SDS011;7843;50.330;7.312;2022-08-21T01:58:18;6.82;;;3.08;;
15482;SDS011;7843;50.330;7.312;2022-08-21T02:00:45;5.18;;;3.05;;
15482;SDS011;7843;50.330;7.312;2022-08-21T02:03:12;8.18;;;3.28;;
15482;SDS011;7843;50.330;7.312;2022-08-21T02:05:39;9.00;;;2.90;;
15482;SDS011;7843;50.330;7.312;2022-08-21T02:08:05;6.53;;;3.25;;
15482;SDS011;7843;50.330;7.312;2022-08-21T02:10:33;7.43;;;3.05;;
15482;SDS011;7843;50.330;7.312;2022-08-21T02:13:00;8.55;;;3.30;;
15482;SDS011;7843;50.330;7.312;2022-08-21T02:15:28;5.78;;;3.15;;
15482;SDS011;7843;50.330;7.312;2022-08-21T02:17:57;7.03;;;3.30;;
15482;SDS011;7843;50.330;7.312;2022-08-21T02:20:33;6.68;;;3.28;;
15482;SDS011;7843;50.330;7.312;2022-08-21T02:23:03;6.80;;;3.70;;
15482;SDS011;7843;50.330;7.312;2022-08-21T02:25:30;7.00;;;2.92;;
15482;SDS011;7843;50.330;7.312;2022-08-21T02:27:58;9.48;;;4.68;;
15482;SDS011;7843;50.330;7.312;2022-08-21T02:30:27;8.80;;;4.25;;
15482;SDS011;7843;50.330;7.312;2022-08-21T02:32:59;8.60;;;4.20;;
15482;SDS011;7843;50.330;7.312;2022-08-21T02:35:27;8.48;;;3.55;;
15482;SDS011;7843;50.330;7.312;2022-08-21T02:37:55;6.28;;;3.55;;
15482;SDS011;7843;50.330;7.312;2022-08-21T02:40:26;8.30;;;3.55;;
15482;SDS011;7843;50.330;7.312;2022-08-21T02:42:54;7.50;;;3.63;;
15482;SDS011;7843;50.330;7.312;2022-08-21T02:45:21;9.52;;;3.53;;
15482;SDS011;7843;50.330;7.312;2022-08-21T02:47:53;7.13;;;3.25;;
15482;SDS011;7843;50.330;7.312;2022-08-21T02:50:26;6.88;;;3.10;;
15482;SDS011;7843;50.330;7.312;2022-08-21T02:52:56;6.63;;;3.10;;
15482;SDS011;7843;50.330;7.312;2022-08-21T02:55:23;7.75;;;3.80;;
15482;SDS011;7843;50.330;7.312;2022-08-21T02:57:53;7.60;;;3.45;;
15482;SDS011;7843;50.330;7.312;2022-08-21T03:00:21;8.60;;;3.47;;
15482;SDS011;7843;50.330;7.312;2022-08-21T03:02:49;8.20;;;3.83;;
15482;SDS011;7843;50.330;7.312;2022-08-21T03:05:17;7.95;;;3.30;;
15482;SDS011;7843;50.330;7.312;2022-08-21T03:07:44;7.57;;;3.20;;
15482;SDS011;7843;50.330;7.312;2022-08-21T03:10:12;7.45;;;3.33;;
15482;SDS011;7843;50.330;7.312;2022-08-21T03:12:40;7.00;;;3.22;;
15482;SDS011;7843;50.330;7.312;2022-08-21T03:15:08;7.95;;;3.92;;
15482;SDS011;7843;50.330;7.312;2022-08-21T03:17:38;8.57;;;3.75;;
15482;SDS011;7843;50.330;7.312;2022-08-21T03:20:05;7.25;;;3.47;;
15482;SDS011;7843;50.330;7.312;2022-08-21T03:22:34;5.97;;;3.23;;
15482;SDS011;7843;50.330;7.312;2022-08-21T03:25:01;7.18;;;3.30;;
15482;SDS011;7843;50.330;7.312;2022-08-21T03:27:29;6.65;;;3.40;;
15482;SDS011;7843;50.330;7.312;2022-08-21T03:29:57;7.28;;;3.13;;
15482;SDS011;7843;50.330;7.312;2022-08-21T03:32:23;7.22;;;3.63;;
15482;SDS011;7843;50.330;7.312;2022-08-21T03:34:50;10.73;;;3.70;;
15482;SDS011;7843;50.330;7.312;2022-08-21T03:37:17;8.38;;;3.55;;
15482;SDS011;7843;50.330;7.312;2022-08-21T03:39:44;7.53;;;3.55;;
15482;SDS011;7843;50.330;7.312;2022-08-21T03:42:11;5.83;;;3.40;;
15482;SDS011;7843;50.330;7.312;2022-08-21T03:44:38;7.15;;;3.25;;
15482;SDS011;7843;50.330;7.312;2022-08-21T03:47:05;7.55;;;3.40;;
15482;SDS011;7843;50.330;7.312;2022-08-21T03:49:32;6.97;;;3.70;;
15482;SDS011;7843;50.330;7.312;2022-08-21T03:51:59;6.65;;;3.33;;
15482;SDS011;7843;50.330;7.312;2022-08-21T03:54:27;6.15;;;3.40;;
15482;SDS011;7843;50.330;7.312;2022-08-21T03:56:53;6.45;;;3.17;;
15482;SDS011;7843;50.330;7.312;2022-08-21T03:59:20;7.28;;;3.50;;
15482;SDS011;7843;50.330;7.312;2022-08-21T04:01:51;8.75;;;4.00;;
15482;SDS011;7843;50.330;7.312;2022-08-21T04:04:23;8.65;;;4.18;;
15482;SDS011;7843;50.330;7.312;2022-08-21T04:06:50;9.00;;;4.07;;
15482;SDS011;7843;50.330;7.312;2022-08-21T04:09:17;8.25;;;4.47;;
15482;SDS011;7843;50.330;7.312;2022-08-21T04:11:44;8.35;;;3.70;;
15482;SDS011;7843;50.330;7.312;2022-08-21T04:14:13;5.93;;;3.53;;
15482;SDS011;7843;50.330;7.312;2022-08-21T04:16:40;8.07;;;3.85;;
15482;SDS011;7843;50.330;7.312;2022-08-21T04:19:08;8.20;;;4.30;;
15482;SDS011;7843;50.330;7.312;2022-08-21T04:21:36;9.07;;;3.55;;
15482;SDS011;7843;50.330;7.312;2022-08-21T04:24:04;6.55;;;3.42;;
15482;SDS011;7843;50.330;7.312;2022-08-21T04:26:31;7.43;;;3.17;;
15482;SDS011;7843;50.330;7.312;2022-08-21T04:29:00;6.82;;;3.70;;
15482;SDS011;7843;50.330;7.312;2022-08-21T04:31:28;8.10;;;3.88;;
15482;SDS011;7843;50.330;7.312;2022-08-21T04:33:54;6.50;;;3.57;;
15482;SDS011;7843;50.330;7.312;2022-08-21T04:36:22;6.25;;;3.35;;
15482;SDS011;7843;50.330;7.312;2022-08-21T04:38:49;7.13;;;3.53;;
15482;SDS011;7843;50.330;7.312;2022-08-21T04:41:16;9.23;;;3.58;;
15482;SDS011;7843;50.330;7.312;2022-08-21T04:43:43;6.63;;;3.35;;
15482;SDS011;7843;50.330;7.312;2022-08-21T04:46:10;8.50;;;3.55;;
15482;SDS011;7843;50.330;7.312;2022-08-21T04:48:36;10.60;;;3.83;;
15482;SDS011;7843;50.330;7.312;2022-08-21T04:51:10;6.88;;;3.25;;
15482;SDS011;7843;50.330;7.312;2022-08-21T04:53:43;5.33;;;3.40;;
15482;SDS011;7843;50.330;7.312;2022-08-21T04:56:11;5.93;;;3.50;;
15482;SDS011;7843;50.330;7.312;2022-08-21T04:58:41;7.15;;;4.20;;
15482;SDS011;7843;50.330;7.312;2022-08-21T05:01:11;9.07;;;3.60;;
15482;SDS011;7843;50.330;7.312;2022-08-21T05:03:41;7.03;;;3.50;;
15482;SDS011;7843;50.330;7.312;2022-08-21T05:06:09;8.27;;;3.50;;
15482;SDS011;7843;50.330;7.312;2022-08-21T05:08:37;7.15;;;3.95;;
15482;SDS011;7843;50.330;7.312;2022-08-21T05:11:05;6.47;;;3.27;;
15482;SDS011;7843;50.330;7.312;2022-08-21T05:13:33;7.55;;;3.90;;
15482;SDS011;7843;50.330;7.312;2022-08-21T05:15:59;7.85;;;3.78;;
15482;SDS011;7843;50.330;7.312;2022-08-21T05:18:26;7.47;;;3.73;;
15482;SDS011;7843;50.330;7.312;2022-08-21T05:20:53;7.75;;;4.10;;
15482;SDS011;7843;50.330;7.312;2022-08-21T05:23:20;7.70;;;4.03;;
15482;SDS011;7843;50.330;7.312;2022-08-21T05:25:47;6.78;;;3.30;;
15482;SDS011;7843;50.330;7.312;2022-08-21T05:28:13;9.25;;;3.53;;
15482;SDS011;7843;50.330;7.312;2022-08-21T05:30:40;8.18;;;3.75;;
15482;SDS011;7843;50.330;7.312;2022-08-21T05:33:07;6.57;;;3.88;;
15482;SDS011;7843;50.330;7.312;2022-08-21T05:35:34;7.82;;;3.95;;
15482;SDS011;7843;50.330;7.312;2022-08-21T05:38:02;7.45;;;3.35;;
15482;SDS011;7843;50.330;7.312;2022-08-21T05:40:30;6.53;;;3.50;;
15482;SDS011;7843;50.330;7.312;2022-08-21T05:42:57;9.43;;;3.53;;
15482;SDS011;7843;50.330;7.312;2022-08-21T05:45:34;7.75;;;3.60;;
15482;SDS011;7843;50.330;7.312;2022-08-21T05:48:07;7.27;;;3.50;;
15482;SDS011;7843;50.330;7.312;2022-08-21T05:50:35;5.90;;;3.38;;
15482;SDS011;7843;50.330;7.312;2022-08-21T05:53:04;8.30;;;3.55;;
15482;SDS011;7843;50.330;7.312;2022-08-21T05:55:31;9.40;;;3.70;;
15482;SDS011;7843;50.330;7.312;2022-08-21T05:57:58;7.87;;;3.07;;
15482;SDS011;7843;50.330;7.312;2022-08-21T06:00:25;6.70;;;3.43;;
15482;SDS011;7843;50.330;7.312;2022-08-21T06:02:52;6.03;;;3.25;;
15482;SDS011;7843;50.330;7.312;2022-08-21T06:05:20;8.18;;;3.80;;
15482;SDS011;7843;50.330;7.312;2022-08-21T06:07:47;8.80;;;4.03;;
15482;SDS011;7843;50.330;7.312;2022-08-21T06:10:14;6.60;;;3.10;;
15482;SDS011;7843;50.330;7.312;2022-08-21T06:12:40;7.93;;;3.47;;
15482;SDS011;7843;50.330;7.312;2022-08-21T06:15:07;8.13;;;3.28;;
15482;SDS011;7843;50.330;7.312;2022-08-21T06:17:34;5.93;;;3.58;;
15482;SDS011;7843;50.330;7.312;2022-08-21T06:20:02;7.05;;;3.47;;
15482;SDS011;7843;50.330;7.312;2022-08-21T06:22:29;6.18;;;3.45;;
15482;SDS011;7843;50.330;7.312;2022-08-21T06:24:56;6.53;;;3.28;;
15482;SDS011;7843;50.330;7.312;2022-08-21T06:27:23;6.72;;;3.42;;
15482;SDS011;7843;50.330;7.312;2022-08-21T06:29:51;9.00;;;3.70;;
15482;SDS011;7843;50.330;7.312;2022-08-21T06:32:18;7.35;;;3.28;;
15482;SDS011;7843;50.330;7.312;2022-08-21T06:34:45;8.70;;;3.30;;
15482;SDS011;7843;50.330;7.312;2022-08-21T06:37:11;8.00;;;3.72;;
15482;SDS011;7843;50.330;7.312;2022-08-21T06:39:38;7.25;;;3.42;;
15482;SDS011;7843;50.330;7.312;2022-08-21T06:42:12;7.18;;;3.65;;
15482;SDS011;7843;50.330;7.312;2022-08-21T06:44:40;6.15;;;3.50;;
15482;SDS011;7843;50.330;7.312;2022-08-21T06:47:07;8.13;;;3.70;;
15482;SDS011;7843;50.330;7.312;2022-08-21T06:49:34;8.48;;;3.50;;
15482;SDS011;7843;50.330;7.312;2022-08-21T06:52:01;6.53;;;3.37;;
15482;SDS011;7843;50.330;7.312;2022-08-21T06:54:29;8.88;;;3.72;;
15482;SDS011;7843;50.330;7.312;2022-08-21T06:56:56;8.68;;;3.97;;
15482;SDS011;7843;50.330;7.312;2022-08-21T06:59:24;8.63;;;3.90;;
15482;SDS011;7843;50.330;7.312;2022-08-21T07:01:50;6.33;;;3.20;;
15482;SDS011;7843;50.330;7.312;2022-08-21T07:04:17;6.20;;;3.53;;
15482;SDS011;7843;50.330;7.312;2022-08-21T07:06:44;7.82;;;3.50;;
15482;SDS011;7843;50.330;7.312;2022-08-21T07:09:11;7.22;;;3.60;;
15482;SDS011;7843;50.330;7.312;2022-08-21T07:11:38;7.90;;;3.22;;
15482;SDS011;7843;50.330;7.312;2022-08-21T07:14:04;6.75;;;3.40;;
15482;SDS011;7843;50.330;7.312;2022-08-21T07:16:31;5.53;;;3.13;;
15482;SDS011;7843;50.330;7.312;2022-08-21T07:18:58;9.70;;;3.60;;
15482;SDS011;7843;50.330;7.312;2022-08-21T07:21:25;7.90;;;3.57;;
15482;SDS011;7843;50.330;7.312;2022-08-21T07:23:52;10.15;;;4.22;;
15482;SDS011;7843;50.330;7.312;2022-08-21T07:26:20;7.63;;;3.65;;
15482;SDS011;7843;50.330;7.312;2022-08-21T07:28:48;8.15;;;3.35;;
15482;SDS011;7843;50.330;7.312;2022-08-21T07:31:22;9.50;;;3.58;;
15482;SDS011;7843;50.330;7.312;2022-08-21T07:33:49;10.02;;;3.90;;
15482;SDS011;7843;50.330;7.312;2022-08-21T07:36:17;9.02;;;3.88;;
15482;SDS011;7843;50.330;7.312;2022-08-21T07:38:44;9.32;;;3.92;;
15482;SDS011;7843;50.330;7.312;2022-08-21T07:41:16;7.60;;;3.60;;
15482;SDS011;7843;50.330;7.312;2022-08-21T07:43:44;7.32;;;4.15;;
15482;SDS011;7843;50.330;7.312;2022-08-21T07:46:12;10.80;;;3.75;;
15482;SDS011;7843;50.330;7.312;2022-08-21T07:48:39;8.57;;;3.67;;
15482;SDS011;7843;50.330;7.312;2022-08-21T07:51:07;8.48;;;3.53;;
15482;SDS011;7843;50.330;7.312;2022-08-21T07:53:35;7.50;;;3.65;;
15482;SDS011;7843;50.330;7.312;2022-08-21T07:56:03;9.00;;;4.00;;
15482;SDS011;7843;50.330;7.312;2022-08-21T07:58:31;8.23;;;4.03;;
15482;SDS011;7843;50.330;7.312;2022-08-21T08:00:58;8.73;;;4.10;;
15482;SDS011;7843;50.330;7.312;2022-08-21T08:03:26;8.67;;;4.03;;
15482;SDS011;7843;50.330;7.312;2022-08-21T08:05:52;10.35;;;4.80;;
15482;SDS011;7843;50.330;7.312;2022-08-21T08:08:19;17.08;;;4.55;;
15482;SDS011;7843;50.330;7.312;2022-08-21T08:10:46;8.43;;;3.90;;
15482;SDS011;7843;50.330;7.312;2022-08-21T08:13:13;10.27;;;4.65;;
15482;SDS011;7843;50.330;7.312;2022-08-21T08:15:39;9.63;;;4.90;;
15482;SDS011;7843;50.330;7.312;2022-08-21T08:18:06;10.70;;;4.60;;
15482;SDS011;7843;50.330;7.312;2022-08-21T08:20:33;10.05;;;4.43;;
15482;SDS011;7843;50.330;7.312;2022-08-21T08:22:59;8.50;;;3.90;;
15482;SDS011;7843;50.330;7.312;2022-08-21T08:25:26;9.38;;;3.70;;
15482;SDS011;7843;50.330;7.312;2022-08-21T08:27:53;13.02;;;4.20;;
15482;SDS011;7843;50.330;7.312;2022-08-21T08:30:20;9.82;;;3.80;;
15482;SDS011;7843;50.330;7.312;2022-08-21T08:32:48;8.70;;;3.75;;
15482;SDS011;7843;50.330;7.312;2022-08-21T08:35:15;9.18;;;4.03;;
15482;SDS011;7843;50.330;7.312;2022-08-21T08:37:42;8.75;;;3.63;;
15482;SDS011;7843;50.330;7.312;2022-08-21T08:40:12;9.73;;;3.08;;
15482;SDS011;7843;50.330;7.312;2022-08-21T08:42:48;6.70;;;3.10;;
15482;SDS011;7843;50.330;7.312;2022-08-21T08:45:18;6.40;;;3.10;;
15482;SDS011;7843;50.330;7.312;2022-08-21T08:47:54;10.15;;;3.30;;
15482;SDS011;7843;50.330;7.312;2022-08-21T08:50:26;7.50;;;2.65;;
15482;SDS011;7843;50.330;7.312;2022-08-21T08:53:05;8.73;;;2.90;;
15482;SDS011;7843;50.330;7.312;2022-08-21T08:55:37;8.32;;;2.90;;
15482;SDS011;7843;50.330;7.312;2022-08-21T08:58:06;9.05;;;2.90;;
15482;SDS011;7843;50.330;7.312;2022-08-21T09:00:35;5.20;;;2.45;;
15482;SDS011;7843;50.330;7.312;2022-08-21T09:03:03;7.28;;;2.30;;
15482;SDS011;7843;50.330;7.312;2022-08-21T09:05:40;6.65;;;2.22;;
15482;SDS011;7843;50.330;7.312;2022-08-21T09:08:23;4.72;;;2.10;;
15482;SDS011;7843;50.330;7.312;2022-08-21T09:13:52;6.70;;;2.10;;
15482;SDS011;7843;50.330;7.312;2022-08-21T09:21:53;7.50;;;2.80;;
15482;SDS011;7843;50.330;7.312;2022-08-21T09:27:09;8.18;;;2.20;;
15482;SDS011;7843;50.330;7.312;2022-08-21T09:29:42;7.70;;;1.90;;
15482;SDS011;7843;50.330;7.312;2022-08-21T09:32:21;6.07;;;2.10;;
15482;SDS011;7843;50.330;7.312;2022-08-21T09:37:50;5.13;;;1.97;;
15482;SDS011;7843;50.330;7.312;2022-08-21T09:40:28;7.78;;;2.20;;
15482;SDS011;7843;50.330;7.312;2022-08-21T09:43:23;6.88;;;2.13;;
15482;SDS011;7843;50.330;7.312;2022-08-21T09:46:19;5.32;;;1.98;;
15482;SDS011;7843;50.330;7.312;2022-08-21T09:48:47;5.18;;;2.10;;
15482;SDS011;7843;50.330;7.312;2022-08-21T09:51:24;7.30;;;2.50;;
15482;SDS011;7843;50.330;7.312;2022-08-21T09:59:41;5.90;;;2.03;;
15482;SDS011;7843;50.330;7.312;2022-08-21T10:02:24;5.33;;;2.03;;
15482;SDS011;7843;50.330;7.312;2022-08-21T10:04:55;6.38;;;2.20;;
15482;SDS011;7843;50.330;7.312;2022-08-21T10:07:25;4.63;;;1.80;;
15482;SDS011;7843;50.330;7.312;2022-08-21T10:10:36;4.75;;;1.95;;
15482;SDS011;7843;50.330;7.312;2022-08-21T10:13:17;4.55;;;1.75;;
15482;SDS011;7843;50.330;7.312;2022-08-21T10:25:01;6.10;;;1.88;;
15482;SDS011;7843;50.330;7.312;2022-08-21T10:27:37;4.60;;;1.92;;
15482;SDS011;7843;50.330;7.312;2022-08-21T10:30:12;4.20;;;1.80;;
15482;SDS011;7843;50.330;7.312;2022-08-21T10:33:05;4.13;;;1.80;;
15482;SDS011;7843;50.330;7.312;2022-08-21T10:35:51;5.80;;;1.90;;
15482;SDS011;7843;50.330;7.312;2022-08-21T10:47:05;5.03;;;1.70;;
15482;SDS011;7843;50.330;7.312;2022-08-21T10:49:47;4.40;;;1.77;;
15482;SDS011;7843;50.330;7.312;2022-08-21T10:52:41;5.63;;;1.83;;
15482;SDS011;7843;50.330;7.312;2022-08-21T10:55:25;4.30;;;1.50;;
15482;SDS011;7843;50.330;7.312;2022-08-21T10:57:58;5.45;;;1.60;;
15482;SDS011;7843;50.330;7.312;2022-08-21T11:00:47;3.92;;;1.60;;
15482;SDS011;7843;50.330;7.312;2022-08-21T11:03:24;4.63;;;1.75;;
15482;SDS011;7843;50.330;7.312;2022-08-21T11:06:13;4.83;;;1.63;;
15482;SDS011;7843;50.330;7.312;2022-08-21T11:08:45;3.50;;;1.52;;
15482;SDS011;7843;50.330;7.312;2022-08-21T11:11:22;3.80;;;1.30;;
15482;SDS011;7843;50.330;7.312;2022-08-21T11:14:15;4.10;;;1.45;;
15482;SDS011;7843;50.330;7.312;2022-08-21T11:17:10;3.75;;;1.40;;
15482;SDS011;7843;50.330;7.312;2022-08-21T11:22:33;5.70;;;1.58;;
15482;SDS011;7843;50.330;7.312;2022-08-21T11:25:14;7.45;;;1.80;;
15482;SDS011;7843;50.330;7.312;2022-08-21T11:30:54;4.57;;;1.40;;
15482;SDS011;7843;50.330;7.312;2022-08-21T11:38:57;4.78;;;1.80;;
15482;SDS011;7843;50.330;7.312;2022-08-21T11:41:40;7.55;;;1.63;;
15482;SDS011;7843;50.330;7.312;2022-08-21T11:44:19;4.63;;;1.55;;
15482;SDS011;7843;50.330;7.312;2022-08-21T11:47:04;3.85;;;1.30;;
15482;SDS011;7843;50.330;7.312;2022-08-21T11:52:23;2.53;;;1.30;;
15482;SDS011;7843;50.330;7.312;2022-08-21T12:00:22;4.32;;;1.60;;
15482;SDS011;7843;50.330;7.312;2022-08-21T12:02:56;3.08;;;1.30;;
15482;SDS011;7843;50.330;7.312;2022-08-21T12:05:33;4.10;;;1.60;;
15482;SDS011;7843;50.330;7.312;2022-08-21T12:08:06;4.25;;;1.50;;
15482;SDS011;7843;50.330;7.312;2022-08-21T12:10:40;4.35;;;1.50;;
15482;SDS011;7843;50.330;7.312;2022-08-21T12:13:22;4.35;;;1.50;;
15482;SDS011;7843;50.330;7.312;2022-08-21T12:15:52;4.03;;;1.50;;
15482;SDS011;7843;50.330;7.312;2022-08-21T12:18:29;3.55;;;1.33;;
15482;SDS011;7843;50.330;7.312;2022-08-21T12:23:32;4.53;;;1.45;;
15482;SDS011;7843;50.330;7.312;2022-08-21T12:28:39;3.85;;;1.35;;
15482;SDS011;7843;50.330;7.312;2022-08-21T12:31:17;5.25;;;1.45;;
15482;SDS011;7843;50.330;7.312;2022-08-21T12:34:01;3.93;;;1.50;;
15482;SDS011;7843;50.330;7.312;2022-08-21T12:36:52;5.45;;;1.38;;
15482;SDS011;7843;50.330;7.312;2022-08-21T12:39:24;3.65;;;1.58;;
15482;SDS011;7843;50.330;7.312;2022-08-21T12:41:57;4.20;;;1.50;;
15482;SDS011;7843;50.330;7.312;2022-08-21T12:44:35;3.15;;;1.20;;
15482;SDS011;7843;50.330;7.312;2022-08-21T12:47:14;4.22;;;1.45;;
15482;SDS011;7843;50.330;7.312;2022-08-21T12:49:46;2.50;;;1.40;;
15482;SDS011;7843;50.330;7.312;2022-08-21T12:52:16;4.68;;;1.30;;
15482;SDS011;7843;50.330;7.312;2022-08-21T12:54:57;3.15;;;1.33;;
15482;SDS011;7843;50.330;7.312;2022-08-21T12:57:26;3.58;;;1.40;;
15482;SDS011;7843;50.330;7.312;2022-08-21T12:59:56;2.35;;;1.30;;
15482;SDS011;7843;50.330;7.312;2022-08-21T13:02:35;3.60;;;1.50;;
15482;SDS011;7843;50.330;7.312;2022-08-21T13:05:06;3.90;;;1.40;;
15482;SDS011;7843;50.330;7.312;2022-08-21T13:07:37;5.22;;;1.95;;
15482;SDS011;7843;50.330;7.312;2022-08-21T13:10:06;4.28;;;1.50;;
15482;SDS011;7843;50.330;7.312;2022-08-21T13:12:42;3.10;;;1.20;;
15482;SDS011;7843;50.330;7.312;2022-08-21T13:15:10;3.90;;;1.30;;
15482;SDS011;7843;50.330;7.312;2022-08-21T13:17:45;3.65;;;1.50;;
15482;SDS011;7843;50.330;7.312;2022-08-21T13:20:21;2.83;;;1.15;;
15482;SDS011;7843;50.330;7.312;2022-08-21T13:22:50;2.47;;;1.10;;
15482;SDS011;7843;50.330;7.312;2022-08-21T13:25:19;2.75;;;1.20;;
15482;SDS011;7843;50.330;7.312;2022-08-21T13:28:03;3.17;;;1.30;;
15482;SDS011;7843;50.330;7.312;2022-08-21T13:30:32;3.83;;;1.30;;
15482;SDS011;7843;50.330;7.312;2022-08-21T13:33:00;2.95;;;1.35;;
15482;SDS011;7843;50.330;7.312;2022-08-21T13:35:44;2.63;;;1.20;;
15482;SDS011;7843;50.330;7.312;2022-08-21T13:38:15;3.53;;;1.20;;
15482;SDS011;7843;50.330;7.312;2022-08-21T13:40:49;2.60;;;1.10;;
15482;SDS011;7843;50.330;7.312;2022-08-21T13:43:25;3.28;;;1.30;;
15482;SDS011;7843;50.330;7.312;2022-08-21T13:45:55;2.60;;;1.10;;
15482;SDS011;7843;50.330;7.312;2022-08-21T13:48:24;3.15;;;1.27;;
15482;SDS011;7843;50.330;7.312;2022-08-21T13:50:52;4.35;;;1.10;;
15482;SDS011;7843;50.330;7.312;2022-08-21T13:53:21;2.10;;;1.13;;
15482;SDS011;7843;50.330;7.312;2022-08-21T13:55:53;3.88;;;1.30;;
15482;SDS011;7843;50.330;7.312;2022-08-21T13:58:26;3.80;;;1.40;;
15482;SDS011;7843;50.330;7.312;2022-08-21T14:00:59;3.45;;;1.10;;
15482;SDS011;7843;50.330;7.312;2022-08-21T14:03:32;3.08;;;1.30;;
15482;SDS011;7843;50.330;7.312;2022-08-21T14:06:18;4.03;;;1.47;;
15482;SDS011;7843;50.330;7.312;2022-08-21T14:08:59;4.18;;;1.48;;
15482;SDS011;7843;50.330;7.312;2022-08-21T14:11:34;3.67;;;1.20;;
15482;SDS011;7843;50.330;7.312;2022-08-21T14:14:04;3.53;;;1.45;;
15482;SDS011;7843;50.330;7.312;2022-08-21T14:19:27;3.13;;;1.48;;
15482;SDS011;7843;50.330;7.312;2022-08-21T14:22:27;2.75;;;1.25;;
15482;SDS011;7843;50.330;7.312;2022-08-21T14:27:55;3.15;;;1.17;;
15482;SDS011;7843;50.330;7.312;2022-08-21T14:30:29;2.80;;;1.20;;
15482;SDS011;7843;50.330;7.312;2022-08-21T14:33:04;2.80;;;1.20;;
15482;SDS011;7843;50.330;7.312;2022-08-21T14:35:35;4.63;;;1.40;;
15482;SDS011;7843;50.330;7.312;2022-08-21T14:38:02;3.38;;;1.35;;
15482;SDS011;7843;50.330;7.312;2022-08-21T14:40:37;3.00;;;1.70;;
15482;SDS011;7843;50.330;7.312;2022-08-21T14:43:03;2.25;;;1.15;;
15482;SDS011;7843;50.330;7.312;2022-08-21T14:45:30;2.95;;;1.42;;
15482;SDS011;7843;50.330;7.312;2022-08-21T14:47:58;4.63;;;1.40;;
15482;SDS011;7843;50.330;7.312;2022-08-21T14:50:25;4.63;;;1.63;;
15482;SDS011;7843;50.330;7.312;2022-08-21T14:52:52;4.85;;;1.20;;
15482;SDS011;7843;50.330;7.312;2022-08-21T14:55:19;3.75;;;1.20;;
15482;SDS011;7843;50.330;7.312;2022-08-21T14:57:50;2.85;;;1.20;;
15482;SDS011;7843;50.330;7.312;2022-08-21T15:00:19;2.72;;;1.20;;
15482;SDS011;7843;50.330;7.312;2022-08-21T15:02:49;2.67;;;1.13;;
15482;SDS011;7843;50.330;7.312;2022-08-21T15:05:16;4.22;;;1.20;;
15482;SDS011;7843;50.330;7.312;2022-08-21T15:07:43;5.28;;;1.40;;
15482;SDS011;7843;50.330;7.312;2022-08-21T15:10:10;3.38;;;1.23;;
15482;SDS011;7843;50.330;7.312;2022-08-21T15:12:37;6.57;;;1.40;;
15482;SDS011;7843;50.330;7.312;2022-08-21T15:15:05;2.53;;;1.13;;
15482;SDS011;7843;50.330;7.312;2022-08-21T15:17:33;3.40;;;1.20;;
15482;SDS011;7843;50.330;7.312;2022-08-21T15:20:00;5.07;;;1.38;;
15482;SDS011;7843;50.330;7.312;2022-08-21T15:22:27;2.45;;;1.25;;
15482;SDS011;7843;50.330;7.312;2022-08-21T15:24:54;2.75;;;1.00;;
15482;SDS011;7843;50.330;7.312;2022-08-21T15:27:20;3.53;;;1.20;;
15482;SDS011;7843;50.330;7.312;2022-08-21T15:29:47;3.15;;;1.35;;
15482;SDS011;7843;50.330;7.312;2022-08-21T15:32:27;3.38;;;1.20;;
15482;SDS011;7843;50.330;7.312;2022-08-21T15:34:55;2.45;;;1.40;;
15482;SDS011;7843;50.330;7.312;2022-08-21T15:37:23;3.10;;;1.15;;
15482;SDS011;7843;50.330;7.312;2022-08-21T15:39:51;2.50;;;1.10;;
15482;SDS011;7843;50.330;7.312;2022-08-21T15:42:18;5.60;;;1.52;;
15482;SDS011;7843;50.330;7.312;2022-08-21T15:44:46;4.15;;;1.50;;
15482;SDS011;7843;50.330;7.312;2022-08-21T15:47:14;3.00;;;1.30;;
15482;SDS011;7843;50.330;7.312;2022-08-21T15:49:43;4.67;;;1.20;;
15482;SDS011;7843;50.330;7.312;2022-08-21T15:52:12;3.95;;;1.30;;
15482;SDS011;7843;50.330;7.312;2022-08-21T15:54:44;5.27;;;1.57;;
15482;SDS011;7843;50.330;7.312;2022-08-21T15:57:14;4.05;;;1.45;;
15482;SDS011;7843;50.330;7.312;2022-08-21T15:59:44;4.38;;;1.40;;
15482;SDS011;7843;50.330;7.312;2022-08-21T16:02:23;3.35;;;1.20;;
15482;SDS011;7843;50.330;7.312;2022-08-21T16:04:52;4.22;;;1.45;;
15482;SDS011;7843;50.330;7.312;2022-08-21T16:07:19;2.23;;;1.10;;
15482;SDS011;7843;50.330;7.312;2022-08-21T16:09:46;2.92;;;1.10;;
15482;SDS011;7843;50.330;7.312;2022-08-21T16:12:17;3.40;;;1.25;;
15482;SDS011;7843;50.330;7.312;2022-08-21T16:14:50;3.25;;;1.15;;
15482;SDS011;7843;50.330;7.312;2022-08-21T16:17:18;3.75;;;1.38;;
15482;SDS011;7843;50.330;7.312;2022-08-21T16:19:45;2.70;;;1.30;;
15482;SDS011;7843;50.330;7.312;2022-08-21T16:22:12;2.67;;;1.17;;
15482;SDS011;7843;50.330;7.312;2022-08-21T16:24:39;3.50;;;1.40;;
15482;SDS011;7843;50.330;7.312;2022-08-21T16:27:06;2.65;;;1.40;;
15482;SDS011;7843;50.330;7.312;2022-08-21T16:29:34;4.18;;;1.42;;